Monday, November 20, 2017, 1:53 AM GMT
Back to Local

CYQI, Yarmouth, N. S.

Location: , , Canada Lat: 43.833
Local Time: 1:53 AM GMT ( 1:53 GMT) Lon: -66.083
Time Zone: GMT Elev: 141 ft

Show me the last for .
Show Decoded

2017-11-20 01:00 METAR CYQI 200100Z 27022G31KT 15SM OVC016 09/06 A2929 RMK SC8 PRESRR SLP921
                 DENSITY ALT 200FT =
2017-11-20 00:00 METAR CYQI 200000Z 25022G32KT 10SM SCT021 OVC038 09/07 A2924 RMK SC4SC4 SLP904
                 DENSITY ALT 300FT =
2017-11-19 23:00 METAR CYQI 192300Z 24019G29KT 6SM BR SCT012 OVC038 10/09 A2921 RMK SF4SC4 SLP893
                 DENSITY ALT 500FT =
2017-11-19 22:00 METAR CYQI 192200Z 22019G28KT 6SM BR SCT010 OVC020 13/12 A2918 RMK SF3SC5 SLP884
                 DENSITY ALT 800FT =
2017-11-19 21:43 METAR CYQI 192143Z 22017G26KT 6SM BR SCT012 OVC035 13/12 A2918 RMK SF4SC4 SLP883
                 DENSITY ALT 800FT =
2017-11-19 21:22 METAR CYQI 192122Z 21019G27KT 4SM -SHRA BR BKN009 OVC028 13/12 A2918 RMK SF6SC2
                 CVCTV CLD EMBD SLP882 DENSITY ALT 800FT =
2017-11-19 21:00 METAR CYQI 192100Z 20018G24KT 4SM BR OVC006 13/12 A2918 RMK SF8 SLP882 DENSITY
                 ALT 800FT =
2017-11-19 20:00 METAR CYQI 192000Z 19016G24KT 4SM BR BKN005 BKN033 13/12 A2918 RMK SF6SC1 SLP884
                 DENSITY ALT 800FT =
2017-11-19 19:52 METAR CYQI 191952Z 20017G24KT 3SM BR BKN005 OVC022 13/13 A2919 RMK SF6SC2 SLP885
                 DENSITY ALT 800FT =
2017-11-19 19:00 METAR CYQI 191900Z 21019G31KT 3SM -RA BR OVC004 14/13 A2921 RMK SF8 SLP892
                 DENSITY ALT 900FT =
2017-11-19 18:27 METAR CYQI 191827Z 19024G33KT 3SM RA BR OVC009 14/13 A2920 RMK SF8 SLP889
                 DENSITY ALT 1000FT =
2017-11-19 18:18 METAR CYQI 191818Z 19022G33KT 3SM -RA BR OVC012 15/13 A2920 RMK SF8 SLP889
                 DENSITY ALT 1000FT =
2017-11-19 18:00 METAR CYQI 191800Z 19021G29KT 4SM BR SCT009 BKN020 OVC070 15/13 A2921 RMK
                 SF4SC3NS1 PRESFR SLP893 DENSITY ALT 1000FT =
2017-11-19 17:36 METAR CYQI 191736Z 19018G28KT 4SM BR SCT009 BKN035 OVC070 14/13 A2924 RMK
                 SF4SC3NS1 PRESFR SLP902 DENSITY ALT 900FT =
2017-11-19 17:00 METAR CYQI 191700Z 19022G32KT 3SM -RA BR OVC007 14/13 A2927 RMK SF8 PRESFR
                 SLP912 DENSITY ALT 900FT =
2017-11-19 16:27 METAR CYQI 191627Z 19020G29KT 6SM BR BKN040 OVC070 15/13 A2929 RMK SC6NS2 SLP922
                 DENSITY ALT 900FT =
2017-11-19 16:00 METAR CYQI 191600Z 19021G29KT 6SM -RA BR SCT045 OVC071 14/13 A2931 RMK SC3NS5
                 SLP928 DENSITY ALT 800FT =
2017-11-19 15:41 METAR CYQI 191541Z 18018G27KT 6SM -RA BR SCT045 BKN074 14/13 A2933 RMK SC3NS4
                 PRESFR SLP934 DENSITY ALT 800FT =
2017-11-19 15:00 METAR CYQI 191500Z 19018G28KT 6SM BR BKN040 OVC070 14/13 A2936 RMK SC6NS2 SLP945
                 DENSITY ALT 700FT =
2017-11-19 14:00 METAR CYQI 191400Z 18019G27KT 6SM -RA BR SCT036 OVC081 13/12 A2939 RMK SC4NS4
                 PRESFR SLP956 DENSITY ALT 600FT =
2017-11-19 13:12 METAR CYQI 191312Z 18017G23KT 6SM -RA BR SCT036 OVC085 13/12 A2942 RMK SC3NS5
                 SLP966 DENSITY ALT 600FT =
2017-11-19 13:00 METAR CYQI 191300Z 18016G24KT 6SM BR BKN037 OVC067 13/12 A2943 RMK SC5NS3 SLP969
                 DENSITY ALT 500FT =
2017-11-19 12:00 METAR CYQI 191200Z 18016G23KT 3SM BR BKN035 OVC062 13/12 A2945 RMK SC6NS2 SLP976
                 DENSITY ALT 500FT =
2017-11-19 11:51 METAR CYQI 191151Z 18017G23KT 3SM BR SCT035TCU OVC062 13/12 A2946 RMK TCU4NS4
                 SLP977 DENSITY ALT 500FT =
2017-11-19 11:00 METAR CYQI 191100Z 18015G21KT 9SM -RA OVC030 12/12 A2948 RMK SC8 SLP984 DENSITY
                 ALT 400FT =
2017-11-19 10:13 METAR CYQI 191013Z 18012KT 9SM -RA FEW036 OVC080 13/12 A2950 RMK SC2AS6 SLP993
                 DENSITY ALT 400FT =
2017-11-19 10:00 METAR CYQI 191000Z 18012G19KT 9SM SCT036 OVC083 13/12 A2951 RMK SC4AS4 SLP995
                 DENSITY ALT 400FT =
2017-11-19 09:42 METAR CYQI 190942Z 18012G18KT 9SM BKN032 OVC082 12/12 A2952 RMK SC5AS3 SLP998
                 DENSITY ALT 300FT =
2017-11-19 09:00 METAR CYQI 190900Z 17010KT 9SM -RA BKN012 OVC080 11/11 A2954 RMK SF7AS1 SLP004
                 DENSITY ALT 200FT =
2017-11-19 08:12 METAR CYQI 190812Z 16009G15KT 9SM BKN035 OVC086 11/10 A2957 RMK SC7AS1 SLP015 =
2017-11-19 08:00 METAR CYQI 190800Z 16010KT 9SM FEW010 SCT036 OVC080 10/10 A2957 RMK SF2SC2AS4
                 IMTMT -RA PRESFR SLP017 =
2017-11-19 07:18 METAR CYQI 190718Z 15010KT 6SM -RA BR BKN013 OVC030 09/08 A2961 RMK SF6NS2
                 SLP030 =
2017-11-19 07:00 METAR CYQI 190700Z 14008KT 15SM -RA BKN016 OVC060 09/08 A2962 RMK SC6NS2 PRESFR
                 SLP032 =
2017-11-19 06:00 METAR CYQI 190600Z 16007KT 15SM -RA OVC060 09/06 A2967 RMK NS8 SLP051 =
2017-11-19 05:39 METAR CYQI 190539Z 17009KT 15SM -RA SCT028 OVC060 09/06 A2968 RMK SC3NS5 SLP053
                 =
2017-11-19 05:00 METAR CYQI 190500Z 17008KT 15SM OVC100 08/05 A2970 RMK AS8 SLP060 =
2017-11-19 04:00 METAR CYQI 190400Z 18007KT 15SM FEW026 OVC080 08/04 A2973 RMK SC1AS7 SLP071 =
2017-11-19 03:00 METAR CYQI 190300Z 20007KT 15SM OVC110 08/03 A2977 RMK AS8 SLP084 =
2017-11-19 02:00 METAR CYQI 190200Z 20006KT 15SM OVC110 07/01 A2979 RMK AS8 SLP090 =

Support USWX by starting your Amazon purchase here.